Time;durP1;ratioP1;P1;durP2;ratioP2;P2;SDS_P1;SDS_P2;PMS_P1;PMS_P2;Temp;Humidity;BMP_temperature;BMP_pressure;BME280_temperature;BME280_humidity;BME280_pressure;Samples;Min_cycle;Max_cycle;Signal;HPM_P1;HPM_P2
2021/11/17 02:28:15;;;;;;;6.13;5.25;;;;;;;3.75;100.00;96148.19;5011445;28;24476;-77
2021/11/17 02:30:58;;;;;;;7.28;6.15;;;;;;;3.75;100.00;96137.94;5011185;28;24409;-78
2021/11/17 02:33:39;;;;;;;7.00;5.00;;;;;;;3.76;100.00;96142.16;5011562;28;24420;-77
2021/11/17 02:36:19;;;;;;;5.72;5.20;;;;;;;3.83;100.00;96141.09;5010924;28;24431;-78
2021/11/17 02:39:06;;;;;;;6.85;5.07;;;;;;;3.83;100.00;96140.28;5010886;28;24439;-78
2021/11/17 02:42:00;;;;;;;8.45;5.55;;;;;;;3.89;100.00;96150.31;5010790;28;24431;-78
2021/11/17 02:44:44;;;;;;;6.03;5.38;;;;;;;3.66;100.00;96142.50;5007410;28;24471;-79
2021/11/17 02:47:38;;;;;;;5.60;5.10;;;;;;;3.60;100.00;96140.97;5010913;28;24435;-77
2021/11/17 02:50:24;;;;;;;6.05;5.20;;;;;;;3.62;100.00;96140.00;5010944;28;24536;-77
2021/11/17 02:53:03;;;;;;;5.97;5.38;;;;;;;3.68;100.00;96139.00;5010869;28;24419;-77
2021/11/17 02:55:46;;;;;;;5.65;4.93;;;;;;;3.69;100.00;96142.41;5010395;28;24420;-78
2021/11/17 02:58:29;;;;;;;5.97;5.32;;;;;;;3.76;100.00;96146.47;5010594;28;24512;-77
2021/11/17 03:01:29;;;;;;;5.90;5.25;;;;;;;3.86;100.00;96148.69;5010882;28;24420;-77
2021/11/17 03:04:09;;;;;;;5.20;4.70;;;;;;;3.86;100.00;96142.75;5010805;28;24412;-77
2021/11/17 03:06:48;;;;;;;6.15;5.55;;;;;;;3.83;100.00;96142.84;5010470;28;24782;-78
2021/11/17 03:09:39;;;;;;;8.27;6.78;;;;;;;3.81;100.00;96147.16;5010673;28;24484;-78
2021/11/17 03:12:26;;;;;;;8.05;6.72;;;;;;;3.72;100.00;96140.59;5010590;28;24435;-78
2021/11/17 03:15:17;;;;;;;6.65;5.75;;;;;;;3.77;100.00;96135.31;5010432;28;24431;-78
2021/11/17 03:18:02;;;;;;;7.03;6.10;;;;;;;3.72;100.00;96138.03;5010701;28;24482;-78
2021/11/17 03:20:57;;;;;;;7.28;6.57;;;;;;;3.75;100.00;96137.94;5010364;28;24435;-77
2021/11/17 03:23:39;;;;;;;6.60;5.70;;;;;;;3.70;100.00;96136.38;5010747;28;24834;-76
2021/11/17 03:26:28;;;;;;;7.15;6.43;;;;;;;3.75;100.00;96142.22;5010291;28;24447;-78
2021/11/17 03:29:15;;;;;;;7.20;6.13;;;;;;;3.80;100.00;96142.91;5010429;28;24431;-77
2021/11/17 03:32:04;;;;;;;7.75;5.40;;;;;;;3.83;100.00;96137.72;5010316;28;24790;-77
2021/11/17 03:34:48;;;;;;;7.80;6.82;;;;;;;3.84;100.00;96142.78;5010253;28;24416;-77
2021/11/17 03:37:30;;;;;;;6.60;5.63;;;;;;;3.87;100.00;96137.56;5010448;28;24419;-77
2021/11/17 03:40:38;;;;;;;5.90;5.40;;;;;;;3.86;100.00;96142.75;5010660;28;24802;-77
2021/11/17 03:43:27;;;;;;;6.78;6.03;;;;;;;3.86;100.00;96145.31;5010502;28;24421;-76
2021/11/17 03:46:07;;;;;;;6.20;5.57;;;;;;;3.85;100.00;96141.88;5009939;28;24493;-77
2021/11/17 03:48:47;;;;;;;8.15;5.75;;;;;;;3.85;100.00;96141.03;5010495;28;24435;-78
2021/11/17 03:51:39;;;;;;;6.10;5.53;;;;;;;3.75;100.00;96155.03;5011063;28;24493;-78
2021/11/17 03:54:19;;;;;;;5.77;5.27;;;;;;;3.66;100.00;96151.00;5013774;28;24524;-78
2021/11/17 03:57:02;;;;;;;6.18;5.32;;;;;;;3.70;100.00;96151.75;5013926;28;24433;-78
2021/11/17 03:59:42;;;;;;;5.50;5.00;;;;;;;3.77;100.00;96146.41;5013917;28;24436;-78
2021/11/17 04:02:26;;;;;;;5.90;5.10;;;;;;;3.68;100.00;96153.53;5002144;28;24436;-78
2021/11/17 04:05:19;;;;;;;5.57;4.93;;;;;;;3.68;100.00;96151.81;5002334;28;24440;-78
2021/11/17 04:08:08;;;;;;;5.53;5.00;;;;;;;3.66;100.00;96150.19;5009346;28;24440;-77
2021/11/17 04:11:00;;;;;;;5.88;5.28;;;;;;;3.72;100.00;96144.88;5013626;28;24787;-77
2021/11/17 04:13:35;;;;;;;6.47;4.90;;;;;;;3.76;100.00;96141.34;5013995;28;24439;-78
2021/11/17 04:16:15;;;;;;;5.65;4.55;;;;;;;3.82;100.00;96139.44;5010051;28;24435;-78
2021/11/17 04:18:57;;;;;;;5.28;4.82;;;;;;;3.84;100.00;96149.63;5013129;28;24444;-77
2021/11/17 04:21:37;;;;;;;5.25;4.60;;;;;;;3.79;100.00;96152.34;5013420;28;24416;-77
2021/11/17 04:24:19;;;;;;;4.95;4.45;;;;;;;3.83;100.00;96146.22;5013749;28;24420;-76
2021/11/17 04:26:58;;;;;;;6.47;4.85;;;;;;;3.80;100.00;96148.03;5013182;28;24448;-77
2021/11/17 04:29:46;;;;;;;5.32;4.82;;;;;;;3.85;100.00;96148.72;5013147;28;24429;-76
2021/11/17 04:32:40;;;;;;;6.32;4.93;;;;;;;3.83;100.00;96148.78;5012154;28;25024;-77
2021/11/17 04:35:43;;;;;;;5.25;4.65;;;;;;;3.87;100.00;96152.94;5006918;28;24443;-77
2021/11/17 04:38:50;;;;;;;5.78;4.63;;;;;;;3.80;100.00;96154.00;4909481;29;24878;-77
2021/11/17 04:41:32;;;;;;;5.27;4.63;;;;;;;3.70;100.00;96162.84;5013214;28;24448;-77
2021/11/17 04:44:18;;;;;;;5.20;4.70;;;;;;;3.68;100.00;96143.28;5013027;28;24814;-77
2021/11/17 04:47:02;;;;;;;5.20;4.70;;;;;;;3.72;100.00;96150.00;5012180;28;24455;-78
2021/11/17 04:49:42;;;;;;;5.88;5.20;;;;;;;3.77;100.00;96140.44;5012900;28;24542;-78
2021/11/17 04:52:24;;;;;;;5.87;4.73;;;;;;;3.71;100.00;96143.19;5012770;28;24429;-77
2021/11/17 04:55:18;;;;;;;5.03;4.50;;;;;;;3.66;100.00;96145.06;4992781;28;24432;-77
2021/11/17 04:57:59;;;;;;;8.38;5.30;;;;;;;3.59;100.00;96149.50;4993411;28;24799;-77
2021/11/17 05:00:56;;;;;;;5.45;4.90;;;;;;;3.59;100.00;96158.03;4993313;28;24471;-77
2021/11/17 05:03:34;;;;;;;5.72;5.10;;;;;;;3.58;100.00;96161.47;5009485;28;24532;-78
2021/11/17 05:06:14;;;;;;;5.68;5.15;;;;;;;3.57;100.00;96156.41;5012511;28;25060;-78
2021/11/17 05:08:48;;;;;;;5.35;4.85;;;;;;;3.47;100.00;96153.28;5012591;28;24424;-78
2021/11/17 05:11:28;;;;;;;5.53;5.00;;;;;;;3.48;100.00;96154.94;5012640;28;24424;-78
2021/11/17 05:14:06;;;;;;;6.85;5.43;;;;;;;3.54;100.00;96153.94;5012669;28;24412;-77
2021/11/17 05:16:51;;;;;;;6.63;5.95;;;;;;;3.55;100.00;96155.59;5012795;28;24424;-77
2021/11/17 05:19:26;;;;;;;12.82;8.23;;;;;;;3.57;100.00;96152.13;5012942;28;24443;-77
2021/11/17 05:22:06;;;;;;;37.35;26.00;;;;;;;3.54;100.00;96153.94;5012133;28;24416;-77
2021/11/17 05:24:46;;;;;;;7.80;7.00;;;;;;;3.39;100.00;96160.34;5012121;28;24427;-76
2021/11/17 05:27:36;;;;;;;7.20;6.50;;;;;;;3.41;100.00;96168.78;5012054;28;25012;-76
2021/11/17 05:30:21;;;;;;;5.75;5.18;;;;;;;3.50;100.00;96160.88;5012442;28;24435;-76
2021/11/17 05:33:04;;;;;;;7.78;6.03;;;;;;;3.58;100.00;96170.88;5004449;28;24795;-76
2021/11/17 05:35:47;;;;;;;9.88;5.80;;;;;;;3.60;100.00;96171.69;5011876;28;24424;-77
2021/11/17 05:38:24;;;;;;;6.75;5.80;;;;;;;3.58;100.00;96171.72;5011935;28;24423;-76
2021/11/17 05:41:07;;;;;;;6.03;5.38;;;;;;;3.68;100.00;96179.16;5011936;28;24432;-76
2021/11/17 05:43:50;;;;;;;6.82;5.40;;;;;;;3.64;100.00;96175.84;5012110;28;24465;-76
2021/11/17 05:46:30;;;;;;;6.65;5.60;;;;;;;3.57;100.00;96176.91;5011540;28;24451;-76
2021/11/17 05:49:07;;;;;;;8.00;7.20;;;;;;;3.60;100.00;96185.34;5011626;28;24440;-76
2021/11/17 05:51:54;;;;;;;9.82;8.07;;;;;;;3.66;100.00;96184.31;5011834;28;24795;-76
2021/11/17 05:54:51;;;;;;;7.20;6.50;;;;;;;3.68;100.00;96197.94;5011559;28;25105;-76
2021/11/17 05:57:33;;;;;;;8.00;6.20;;;;;;;3.57;100.00;96207.63;5008490;28;24444;-76
2021/11/17 06:00:16;;;;;;;8.35;6.43;;;;;;;3.47;100.00;96206.22;5011692;28;24412;-76
2021/11/17 06:02:55;;;;;;;6.70;5.95;;;;;;;3.60;100.00;96197.31;5011541;28;24782;-76
2021/11/17 06:05:21;;;;;;;7.45;5.38;;;;;;;3.50;100.00;96206.97;5011185;28;24420;-76
2021/11/17 06:07:47;;;;;;;4.80;3.83;;;;;;;3.33;100.00;96206.59;5011365;28;24440;-76
2021/11/17 06:10:18;;;;;;;3.75;3.45;;;;;;;3.27;100.00;96210.16;5011511;28;24424;-76
2021/11/17 06:12:45;;;;;;;5.93;3.45;;;;;;;3.10;100.00;96218.28;5011485;28;24435;-76
2021/11/17 06:15:14;;;;;;;5.68;3.47;;;;;;;3.06;100.00;96224.34;5010470;28;24430;-76
2021/11/17 06:17:44;;;;;;;4.60;3.50;;;;;;;3.01;100.00;96222.81;5011180;28;24431;-76
2021/11/17 06:20:12;;;;;;;5.30;4.32;;;;;;;2.98;100.00;96217.78;5011000;28;24424;-76
2021/11/17 06:22:41;;;;;;;5.20;3.85;;;;;;;2.96;100.00;96220.34;5011337;28;24831;-76
2021/11/17 06:25:10;;;;;;;5.80;5.13;;;;;;;3.01;100.00;96221.09;5011116;28;24428;-76
2021/11/17 06:27:43;;;;;;;5.32;4.10;;;;;;;2.95;100.00;96221.25;5011152;28;24451;-76
2021/11/17 06:30:12;;;;;;;4.23;3.83;;;;;;;2.92;100.00;96216.19;5010841;28;25004;-76
2021/11/17 06:32:39;;;;;;;4.63;3.38;;;;;;;2.88;100.00;96212.88;5011182;28;24424;-76
2021/11/17 06:35:08;;;;;;;3.60;3.03;;;;;;;2.90;100.00;96216.25;5010834;28;24424;-76
2021/11/17 06:37:35;;;;;;;3.50;3.00;;;;;;;2.92;100.00;96224.69;5010868;28;24491;-76
2021/11/17 06:40:04;;;;;;;2.55;2.35;;;;;;;2.97;100.00;96234.00;5005254;28;24429;-75
2021/11/17 06:42:34;;;;;;;3.08;2.60;;;;;;;2.98;100.00;96233.97;5015938;28;24431;-74
2021/11/17 06:45:04;;;;;;;3.25;2.50;;;;;;;3.06;100.00;96239.72;5011846;28;24428;-74
2021/11/17 06:47:30;;;;;;;3.38;3.08;;;;;;;2.98;100.00;96241.63;5028135;28;25063;-75
2021/11/17 06:49:57;;;;;;;2.95;2.40;;;;;;;2.95;100.00;96236.59;5030069;28;24984;-75
2021/11/17 06:52:24;;;;;;;2.45;1.90;;;;;;;2.94;100.00;96232.34;5016201;28;24993;-75
2021/11/17 06:54:51;;;;;;;1.90;1.58;;;;;;;2.96;100.00;96237.44;5009510;28;24416;-69
2021/11/17 06:57:18;;;;;;;1.60;1.50;;;;;;;2.96;100.00;96237.44;5009558;28;24427;-75
2021/11/17 06:59:45;;;;;;;2.15;1.73;;;;;;;2.98;100.00;96248.47;5017618;28;24976;-75
2021/11/17 07:02:13;;;;;;;1.88;1.58;;;;;;;2.97;100.00;96251.91;5030425;28;24432;-74
2021/11/17 07:04:39;;;;;;;2.63;1.73;;;;;;;2.98;100.00;96261.25;5030372;28;24435;-75
2021/11/17 07:07:09;;;;;;;2.15;1.92;;;;;;;3.00;100.00;96268.00;5030500;28;24440;-75
2021/11/17 07:09:35;;;;;;;2.30;1.90;;;;;;;2.95;100.00;96261.34;5029792;28;24797;-75
2021/11/17 07:12:02;;;;;;;1.70;1.60;;;;;;;2.95;100.00;96262.19;5030348;28;24435;-75
2021/11/17 07:14:30;;;;;;;2.00;1.77;;;;;;;2.95;100.00;96271.56;5030425;28;24435;-75
2021/11/17 07:16:57;;;;;;;2.00;1.60;;;;;;;2.92;100.00;96285.28;5024966;28;24479;-75
2021/11/17 07:19:25;;;;;;;2.20;1.77;;;;;;;2.91;100.00;96281.88;5010468;28;24786;-75
2021/11/17 07:21:53;;;;;;;2.00;1.80;;;;;;;2.91;100.00;96281.88;5010572;28;24441;-75
2021/11/17 07:24:21;;;;;;;3.03;2.40;;;;;;;2.94;100.00;96292.94;5010406;28;24786;-76
2021/11/17 07:26:48;;;;;;;3.30;1.80;;;;;;;2.96;100.00;96297.09;5011700;28;24444;-75
2021/11/17 07:29:15;;;;;;;2.75;1.83;;;;;;;2.96;100.00;96302.22;5033922;28;24431;-75
2021/11/17 07:31:42;;;;;;;2.05;1.60;;;;;;;2.96;100.00;96296.28;5034187;28;24423;-76
2021/11/17 07:34:08;;;;;;;2.42;1.80;;;;;;;2.95;100.00;96300.56;5034086;28;24428;-75
2021/11/17 07:36:36;;;;;;;2.27;2.07;;;;;;;2.94;100.00;96290.38;5033890;28;24416;-75
2021/11/17 07:39:04;;;;;;;2.60;1.90;;;;;;;2.98;100.00;96297.09;5034382;28;24427;-75
2021/11/17 07:41:31;;;;;;;2.27;1.93;;;;;;;2.97;100.00;96301.38;5013980;28;24443;-75
2021/11/17 07:43:57;;;;;;;3.83;2.72;;;;;;;3.01;100.00;96310.66;5014395;28;24420;-75
2021/11/17 07:46:24;;;;;;;2.50;2.20;;;;;;;2.99;100.00;96311.56;5014010;28;24802;-75
2021/11/17 07:48:51;;;;;;;2.65;2.40;;;;;;;3.04;100.00;96319.94;5014076;28;24421;-75
2021/11/17 07:51:18;;;;;;;3.35;2.35;;;;;;;3.00;100.00;96323.47;5013944;28;24515;-75
2021/11/17 07:53:45;;;;;;;3.95;2.10;;;;;;;3.02;100.00;96326.84;5013814;28;24528;-74
2021/11/17 07:56:15;;;;;;;3.07;2.60;;;;;;;3.07;100.00;96322.44;5013879;28;24552;-75
2021/11/17 07:58:44;;;;;;;2.40;2.20;;;;;;;3.04;100.00;96328.50;5013865;28;24495;-76
2021/11/17 08:01:11;;;;;;;2.67;2.40;;;;;;;3.06;100.00;96329.28;5014500;28;24517;-75
2021/11/17 08:03:40;;;;;;;1.92;1.77;;;;;;;3.01;100.00;96333.69;5014306;28;24416;-75
2021/11/17 08:06:08;;;;;;;2.78;2.33;;;;;;;2.99;100.00;96337.16;5013705;28;24831;-74
2021/11/17 08:08:36;;;;;;;4.72;2.90;;;;;;;3.09;100.00;96336.06;5014067;28;24810;-74
2021/11/17 08:11:08;;;;;;;3.97;2.70;;;;;;;3.20;100.00;96334.06;4997822;28;24479;-75
2021/11/17 08:13:37;;;;;;;3.07;2.67;;;;;;;3.18;100.00;96340.94;4994468;28;24433;-75
2021/11/17 08:16:04;;;;;;;2.20;1.65;;;;;;;3.07;100.00;96341.19;4994313;28;24428;-75
2021/11/17 08:18:32;;;;;;;2.53;1.70;;;;;;;3.01;100.00;96343.91;4994563;28;24429;-75
2021/11/17 08:20:59;;;;;;;2.10;1.83;;;;;;;3.04;100.00;96342.97;4994437;28;24444;-75
2021/11/17 08:23:26;;;;;;;1.60;1.48;;;;;;;2.96;100.00;96343.16;4994648;28;24440;-75
2021/11/17 08:25:52;;;;;;;1.52;1.42;;;;;;;3.01;100.00;96345.63;4994472;28;24791;-75
2021/11/17 08:28:21;;;;;;;1.63;1.52;;;;;;;3.07;100.00;96343.75;4994327;28;24823;-75
2021/11/17 08:30:49;;;;;;;2.20;1.80;;;;;;;3.02;100.00;96347.31;4994452;28;24424;-75
2021/11/17 08:33:16;;;;;;;3.80;2.08;;;;;;;3.01;100.00;96343.06;4994226;28;24989;-76
2021/11/17 08:35:45;;;;;;;1.45;1.30;;;;;;;2.82;100.00;96348.63;4993844;28;24421;-75
2021/11/17 08:38:14;;;;;;;2.45;1.65;;;;;;;2.84;100.00;96354.53;4993665;28;24984;-75
2021/11/17 08:40:43;;;;;;;2.40;1.80;;;;;;;2.80;100.00;96363.16;4994000;28;24484;-74
2021/11/17 08:43:11;;;;;;;1.73;1.55;;;;;;;2.75;100.00;96362.44;4994371;28;24503;-74
2021/11/17 08:45:40;;;;;;;3.17;2.10;;;;;;;2.79;100.00;96355.53;4993621;28;24513;-75
2021/11/17 08:48:08;;;;;;;2.83;1.92;;;;;;;2.82;100.00;96358.03;4993578;28;24472;-75
2021/11/17 08:50:36;;;;;;;3.47;2.08;;;;;;;2.90;100.00;96356.97;4993721;28;24417;-75
2021/11/17 08:53:06;;;;;;;12.93;5.90;;;;;;;2.85;100.00;96351.09;4993769;28;24424;-75
2021/11/17 08:55:34;;;;;;;2.22;1.90;;;;;;;2.85;100.00;96360.47;4993386;28;24429;-75
2021/11/17 08:58:01;;;;;;;2.47;2.20;;;;;;;2.86;100.00;96357.06;4993484;28;24425;-74
2021/11/17 09:00:29;;;;;;;2.20;2.00;;;;;;;2.82;100.00;96361.41;4994031;28;24779;-75
2021/11/17 09:03:00;;;;;;;2.58;2.08;;;;;;;2.87;100.00;96358.75;4993754;28;24451;-74
2021/11/17 09:05:29;;;;;;;4.35;2.40;;;;;;;2.81;100.00;96354.59;4993390;28;24421;-74
2021/11/17 09:07:58;;;;;;;2.97;2.03;;;;;;;2.83;100.00;96357.13;4993684;28;24456;-74
2021/11/17 09:10:26;;;;;;;2.35;1.80;;;;;;;2.80;100.00;96352.91;5003324;28;24799;-75
2021/11/17 09:12:53;;;;;;;2.95;2.58;;;;;;;2.84;100.00;96359.66;5013070;28;24423;-75
2021/11/17 09:15:22;;;;;;;2.58;2.20;;;;;;;2.88;100.00;96362.97;5012452;28;24423;-75
2021/11/17 09:17:49;;;;;;;2.67;2.10;;;;;;;2.87;100.00;96361.31;5012885;28;24417;-75
2021/11/17 09:20:19;;;;;;;3.10;2.47;;;;;;;2.85;100.00;96363.88;5012527;28;24424;-75
2021/11/17 09:22:48;;;;;;;3.50;2.28;;;;;;;2.87;100.00;96371.53;5012615;28;24969;-74
2021/11/17 09:25:16;;;;;;;3.10;2.10;;;;;;;2.90;100.00;96372.31;5012436;28;24413;-74
2021/11/17 09:27:42;;;;;;;2.47;2.15;;;;;;;2.85;100.00;96380.94;5012323;28;24440;-75
2021/11/17 09:30:12;;;;;;;2.20;2.00;;;;;;;2.94;100.00;96378.19;5012520;28;24435;-74
2021/11/17 09:32:39;;;;;;;2.30;2.10;;;;;;;2.92;100.00;96387.63;5012614;28;24424;-74
2021/11/17 09:35:08;;;;;;;4.80;2.05;;;;;;;2.90;100.00;96390.22;5012286;28;24414;-74
2021/11/17 09:37:39;;;;;;;5.88;3.72;;;;;;;2.99;100.00;96383.19;5012535;28;24420;-75
2021/11/17 09:40:08;;;;;;;4.38;2.50;;;;;;;3.10;100.00;96387.19;5019990;28;24443;-75
2021/11/17 09:42:36;;;;;;;3.50;2.65;;;;;;;3.11;100.00;96391.41;5032276;28;24837;-75
2021/11/17 09:45:04;;;;;;;5.60;2.70;;;;;;;3.22;100.00;96403.13;5031915;28;24762;-75
2021/11/17 09:47:34;;;;;;;2.88;2.50;;;;;;;3.30;100.00;96403.78;5032018;28;24797;-75
2021/11/17 09:50:10;;;;;;;2.80;2.47;;;;;;;3.34;100.00;96416.50;5031385;28;24795;-74
2021/11/17 09:52:41;;;;;;;2.30;1.92;;;;;;;3.26;100.00;96414.97;5031414;28;24435;-75
2021/11/17 09:55:17;;;;;;;3.33;2.50;;;;;;;3.28;100.00;96420.91;5031525;28;24972;-74
2021/11/17 09:57:47;;;;;;;2.88;2.20;;;;;;;3.25;100.00;96416.69;5031902;28;24896;-74
2021/11/17 10:00:19;;;;;;;2.28;2.05;;;;;;;3.35;100.00;96427.56;5031668;28;24426;-74
2021/11/17 10:02:49;;;;;;;1.90;1.70;;;;;;;3.22;100.00;96429.56;5031837;28;24424;-75
2021/11/17 10:05:18;;;;;;;4.88;1.52;;;;;;;3.29;100.00;96431.09;5031252;28;24435;-75
2021/11/17 10:08:20;;;;;;;2.28;1.38;;;;;;;3.14;100.00;96419.50;5031577;28;24444;-75
2021/11/17 10:13:53;;;;;;;1.80;1.40;;;;;;;3.19;100.00;96421.97;4970267;28;24638;-74
2021/11/17 10:16:23;;;;;;;2.60;2.13;;;;;;;3.21;100.00;96417.66;5002721;28;24494;-74
2021/11/17 10:18:53;;;;;;;6.68;3.20;;;;;;;3.17;100.00;96415.22;5011315;28;24428;-74
2021/11/17 10:21:31;;;;;;;2.40;1.90;;;;;;;3.21;100.00;96407.41;5011582;28;24409;-74
2021/11/17 10:24:05;;;;;;;2.30;1.58;;;;;;;3.15;100.00;96408.41;5011337;28;25008;-76
2021/11/17 10:26:37;;;;;;;1.77;1.67;;;;;;;3.29;100.00;96412.34;5011433;28;24439;-75
2021/11/17 10:29:06;;;;;;;2.00;1.40;;;;;;;3.21;100.00;96411.69;5011161;28;24460;-76
2021/11/17 10:31:48;;;;;;;2.45;1.60;;;;;;;3.28;100.00;96421.75;5011426;28;24435;-76
2021/11/17 10:34:19;;;;;;;2.75;1.70;;;;;;;3.33;100.00;96413.94;5010943;28;24866;-76
2021/11/17 10:36:57;;;;;;;1.92;1.73;;;;;;;3.40;100.00;96411.22;5011180;28;24429;-76
2021/11/17 10:39:28;;;;;;;2.43;1.93;;;;;;;3.39;100.00;96406.97;5008505;28;25000;-76
2021/11/17 10:41:59;;;;;;;1.45;1.35;;;;;;;3.27;100.00;96411.56;4991350;28;24428;-77
2021/11/17 10:44:44;;;;;;;1.42;1.25;;;;;;;3.19;100.00;96401.50;4990955;28;24823;-75
2021/11/17 10:47:24;;;;;;;2.38;1.48;;;;;;;3.35;100.00;96394.28;4991473;28;24447;-76
2021/11/17 10:49:54;;;;;;;2.80;1.90;;;;;;;3.30;100.00;96403.78;4991101;28;25017;-76
2021/11/17 10:52:28;;;;;;;9.85;5.80;;;;;;;3.23;100.00;96407.41;4991294;28;24425;-76
2021/11/17 10:54:58;;;;;;;5.65;2.88;;;;;;;3.32;100.00;96396.91;4990780;28;24894;-76
2021/11/17 10:57:26;;;;;;;13.02;8.50;;;;;;;3.34;100.00;96390.91;4991336;28;24424;-77
2021/11/17 10:59:56;;;;;;;6.28;4.20;;;;;;;3.45;100.00;96393.19;5009076;28;24435;-77
2021/11/17 11:02:24;;;;;;;7.93;4.38;;;;;;;3.34;100.00;96398.56;5030210;28;24428;-75
2021/11/17 11:04:54;;;;;;;17.48;9.63;;;;;;;3.35;100.00;96407.09;5028554;28;24428;-77
2021/11/17 11:07:30;;;;;;;3.20;2.20;;;;;;;3.25;100.00;96405.63;5030309;28;24451;-76
2021/11/17 11:10:06;;;;;;;3.15;2.30;;;;;;;3.14;100.00;96409.28;5016005;28;24472;-76
2021/11/17 11:12:34;;;;;;;5.55;3.50;;;;;;;3.09;100.00;96406.00;4994202;28;24432;-76
2021/11/17 11:15:05;;;;;;;8.15;4.32;;;;;;;3.15;100.00;96400.72;5010437;28;24427;-76
2021/11/17 11:17:39;;;;;;;5.45;3.72;;;;;;;3.17;100.00;96400.69;5010515;28;24784;-75
2021/11/17 11:20:30;;;;;;;5.75;4.13;;;;;;;3.00;100.00;96400.22;5036012;23;24479;-72
2021/11/17 11:23:17;;;;;;;4.05;3.20;;;;;;;3.05;100.00;96404.38;5030195;28;25031;-72
2021/11/17 11:25:58;;;;;;;3.13;2.08;;;;;;;3.11;100.00;96414.44;5029903;28;24427;-74
2021/11/17 11:28:32;;;;;;;4.30;2.78;;;;;;;3.06;100.00;96410.34;5029896;28;24992;-71
2021/11/17 11:31:34;;;;;;;2.65;2.40;;;;;;;3.13;100.00;96414.44;5030176;28;24428;-73
2021/11/17 11:34:39;;;;;;;5.38;4.25;;;;;;;3.17;100.00;96413.47;5030121;28;24781;-72
2021/11/17 11:37:09;;;;;;;3.45;2.83;;;;;;;3.19;100.00;96409.19;5030317;28;24424;-69
2021/11/17 11:39:43;;;;;;;5.65;3.03;;;;;;;3.18;100.00;96417.72;5029786;28;24447;-73
2021/11/17 11:42:40;;;;;;;3.22;2.75;;;;;;;3.17;100.00;96417.75;5030349;28;24792;-71
2021/11/17 11:45:36;;;;;;;2.87;2.57;;;;;;;3.22;100.00;96410.81;5029308;28;24614;-71
2021/11/17 11:48:04;;;;;;;4.70;3.92;;;;;;;3.22;100.00;96414.19;5030015;28;24566;-71
2021/11/17 11:51:00;;;;;;;3.27;1.60;;;;;;;3.26;100.00;96415.81;5029837;28;25058;-72
2021/11/17 11:54:06;;;;;;;2.33;1.92;;;;;;;3.25;100.00;96413.31;5029710;28;24416;-71
2021/11/17 11:56:43;;;;;;;1.30;1.10;;;;;;;3.16;100.00;96406.69;5029507;28;25054;-72
2021/11/17 11:59:14;;;;;;;2.50;1.75;;;;;;;3.23;100.00;96407.41;5029839;28;24420;-71
2021/11/17 12:01:42;;;;;;;2.25;1.60;;;;;;;3.20;100.00;96407.47;5029697;28;24949;-72
2021/11/17 12:04:13;;;;;;;1.10;1.00;;;;;;;3.19;100.00;96414.31;5029680;28;24818;-71
2021/11/17 12:06:43;;;;;;;1.33;1.03;;;;;;;3.15;100.00;96413.53;5029619;28;24488;-72
2021/11/17 12:09:17;;;;;;;1.30;1.00;;;;;;;3.10;100.00;96417.06;5029467;28;24454;-71
2021/11/17 12:11:48;;;;;;;1.38;1.20;;;;;;;3.10;100.00;96417.91;5029623;28;24473;-71
2021/11/17 12:14:29;;;;;;;1.42;1.10;;;;;;;3.04;100.00;96407.81;5032972;28;24426;-72
2021/11/17 12:16:56;;;;;;;1.30;1.20;;;;;;;3.01;100.00;96409.59;5033465;28;24419;-72
2021/11/17 12:19:34;;;;;;;1.33;1.10;;;;;;;2.96;100.00;96416.53;5032952;28;24833;-71
2021/11/17 12:22:03;;;;;;;2.28;1.33;;;;;;;3.00;100.00;96421.53;5033395;28;24427;-71
2021/11/17 12:24:32;;;;;;;2.38;1.40;;;;;;;3.03;100.00;96418.91;5032851;28;24424;-72
2021/11/17 12:27:02;;;;;;;2.00;1.00;;;;;;;3.08;100.00;96401.75;5032842;28;24527;-72
2021/11/17 12:29:41;;;;;;;8.52;1.58;;;;;;;3.12;100.00;96408.47;5032989;28;24822;-73
2021/11/17 12:32:14;;;;;;;1.60;1.50;;;;;;;3.18;100.00;96412.59;5033193;28;24478;-73
2021/11/17 12:34:50;;;;;;;2.25;1.65;;;;;;;3.24;100.00;96414.19;5032684;28;24422;-71
2021/11/17 12:37:21;;;;;;;1.55;1.42;;;;;;;3.34;100.00;96415.66;5032822;28;24439;-72
2021/11/17 12:39:52;;;;;;;1.52;1.40;;;;;;;3.35;100.00;96413.03;5032716;28;24813;-71
2021/11/17 12:42:26;;;;;;;2.43;1.70;;;;;;;3.41;100.00;96422.28;5033011;28;24420;-71
2021/11/17 12:44:58;;;;;;;2.15;1.20;;;;;;;3.43;100.00;96415.41;5032608;28;24435;-72
2021/11/17 12:47:28;;;;;;;2.33;1.60;;;;;;;3.46;100.00;96407.66;5032787;28;24786;-71
2021/11/17 12:50:04;;;;;;;2.13;1.52;;;;;;;3.40;100.00;96418.06;5032495;28;24416;-71
2021/11/17 12:52:35;;;;;;;2.58;1.67;;;;;;;3.52;100.00;96410.09;5032903;28;24412;-72
2021/11/17 12:55:08;;;;;;;2.63;2.05;;;;;;;3.48;100.00;96412.75;5032454;28;24418;-73
2021/11/17 12:57:41;;;;;;;2.50;2.30;;;;;;;3.39;100.00;96406.13;5032645;28;24426;-71
2021/11/17 13:00:40;;;;;;;4.00;2.20;;;;;;;3.31;100.00;96408.88;5032598;28;24443;-72
2021/11/17 13:03:10;;;;;;;2.60;1.67;;;;;;;3.22;100.00;96408.25;5032747;28;24419;-71
2021/11/17 13:05:40;;;;;;;2.00;1.80;;;;;;;3.21;100.00;96406.56;5032258;28;24431;-71
2021/11/17 13:08:11;;;;;;;2.38;2.17;;;;;;;3.21;100.00;96415.09;5032661;28;24813;-72
2021/11/17 13:10:41;;;;;;;2.30;2.08;;;;;;;3.23;100.00;96417.63;5032015;28;24447;-71
2021/11/17 13:13:15;;;;;;;2.85;2.40;;;;;;;3.16;100.00;96416.94;5032161;28;24949;-71
2021/11/17 13:15:57;;;;;;;3.20;2.90;;;;;;;3.16;100.00;96424.59;5031855;28;24952;-71
2021/11/17 13:18:28;;;;;;;3.85;2.60;;;;;;;3.21;100.00;96424.50;5032163;28;24419;-71
2021/11/17 13:21:09;;;;;;;3.72;2.95;;;;;;;3.22;100.00;96424.44;5031766;28;24428;-74
2021/11/17 13:23:41;;;;;;;3.40;2.95;;;;;;;3.20;100.00;96423.66;5032209;28;24416;-71
2021/11/17 13:26:17;;;;;;;7.78;3.60;;;;;;;3.21;100.00;96424.50;5031877;28;24778;-71
2021/11/17 13:28:47;;;;;;;5.00;3.05;;;;;;;3.18;100.00;96424.56;5031491;28;24451;-71
2021/11/17 13:31:34;;;;;;;4.43;3.78;;;;;;;3.21;100.00;96425.34;5031857;28;24420;-71
2021/11/17 13:34:04;;;;;;;3.67;3.33;;;;;;;3.15;100.00;96425.47;5031991;28;24420;-71
2021/11/17 13:36:44;;;;;;;3.40;3.10;;;;;;;3.20;100.00;96426.22;5031911;28;24761;-71
2021/11/17 13:39:11;;;;;;;4.45;2.58;;;;;;;3.17;100.00;96428.00;5031184;28;24412;-71
2021/11/17 13:41:41;;;;;;;4.60;3.05;;;;;;;3.14;100.00;96427.19;5031604;28;24518;-71
2021/11/17 13:44:08;;;;;;;3.10;2.80;;;;;;;3.14;100.00;96416.94;5031875;28;24450;-72
2021/11/17 13:46:38;;;;;;;2.90;2.60;;;;;;;3.26;100.00;96417.53;5031490;28;24419;-72
2021/11/17 13:49:05;;;;;;;4.47;2.90;;;;;;;3.32;100.00;96418.25;5031521;28;24447;-72
2021/11/17 13:51:32;;;;;;;6.50;3.00;;;;;;;3.48;100.00;96417.88;5031436;28;25060;-72
2021/11/17 13:53:58;;;;;;;4.70;3.42;;;;;;;3.52;100.00;96415.22;5031442;28;24419;-72
2021/11/17 13:56:27;;;;;;;3.23;2.93;;;;;;;3.59;100.00;96429.53;5030898;28;24460;-72
2021/11/17 13:58:54;;;;;;;5.80;3.85;;;;;;;3.71;100.00;96423.28;5031384;28;24829;-71
2021/11/17 14:01:22;;;;;;;3.95;3.28;;;;;;;3.78;100.00;96422.25;5031200;28;24953;-71
2021/11/17 14:03:50;;;;;;;4.05;3.40;;;;;;;3.77;100.00;96415.41;5031433;28;24435;-72
2021/11/17 14:06:19;;;;;;;3.20;2.78;;;;;;;3.83;100.00;96417.81;5018859;28;24443;-71
2021/11/17 14:08:46;;;;;;;3.60;2.90;;;;;;;3.87;100.00;96413.47;5030600;28;24459;-72
2021/11/17 14:11:13;;;;;;;4.63;3.08;;;;;;;3.93;100.00;96403.06;5030884;28;24432;-72
2021/11/17 14:13:40;;;;;;;3.20;2.55;;;;;;;4.02;100.00;96409.66;5028661;28;24432;-70
2021/11/17 14:16:07;;;;;;;3.88;3.40;;;;;;;3.98;100.00;96428.56;5025367;28;24436;-72
2021/11/17 14:18:34;;;;;;;3.22;2.22;;;;;;;3.95;100.00;96434.59;5028655;28;24518;-71
2021/11/17 14:21:05;;;;;;;3.28;2.60;;;;;;;3.91;100.00;96432.16;5025709;28;24977;-72
2021/11/17 14:23:32;;;;;;;9.23;2.65;;;;;;;4.00;100.00;96422.50;5028812;28;24814;-71
2021/11/17 14:25:59;;;;;;;2.20;2.00;;;;;;;4.00;100.00;96426.78;5030821;28;24786;-72
2021/11/17 14:28:30;;;;;;;3.90;2.40;;;;;;;4.04;100.00;96428.38;5030854;28;25247;-73
2021/11/17 14:30:59;;;;;;;3.80;2.47;;;;;;;4.02;100.00;96428.44;5030697;28;24423;-74
2021/11/17 14:33:31;;;;;;;3.22;2.60;;;;;;;4.07;100.00;96428.31;5030833;28;24972;-73
2021/11/17 14:35:59;;;;;;;2.22;2.03;;;;;;;4.04;100.00;96426.69;5030101;28;24482;-73
2021/11/17 14:38:29;;;;;;;3.07;2.27;;;;;;;4.05;100.00;96432.66;5030927;28;24431;-73
2021/11/17 14:40:56;;;;;;;2.38;2.17;;;;;;;4.04;100.00;96429.25;5028899;28;24519;-73